createdAt,value
2019-03-17T00:00:58.282Z,3.70
2019-03-17T00:03:36.233Z,2.87
2019-03-17T00:06:07.770Z,3.17
2019-03-17T00:08:35.544Z,3.00
2019-03-17T00:11:04.237Z,2.90
2019-03-17T00:13:33.324Z,3.10
2019-03-17T00:16:01.899Z,2.90
2019-03-17T00:18:33.322Z,2.90
2019-03-17T00:21:02.135Z,3.03
2019-03-17T00:23:31.018Z,3.27
2019-03-17T00:26:01.395Z,3.67
2019-03-17T00:28:30.472Z,2.90
2019-03-17T00:30:59.596Z,2.90
2019-03-17T00:33:28.155Z,2.80
2019-03-17T00:35:57.336Z,3.47
2019-03-17T00:38:29.960Z,3.10
2019-03-17T00:40:58.700Z,3.83
2019-03-17T00:43:27.536Z,3.30
2019-03-17T00:45:56.764Z,3.20
2019-03-17T00:48:26.212Z,2.90
2019-03-17T00:50:55.425Z,3.63
2019-03-17T00:53:24.550Z,3.60
2019-03-17T00:55:53.291Z,4.07
2019-03-17T00:58:22.269Z,3.73
2019-03-17T01:00:50.946Z,4.00
2019-03-17T01:03:23.003Z,3.77
2019-03-17T01:05:54.349Z,3.50
2019-03-17T01:08:23.078Z,4.80
2019-03-17T01:10:52.168Z,3.80
2019-03-17T01:13:20.998Z,4.03
2019-03-17T01:15:50.610Z,4.60
2019-03-17T01:18:20.273Z,4.87
2019-03-17T01:20:50.186Z,4.27
2019-03-17T01:23:20.557Z,4.97
2019-03-17T01:25:49.568Z,6.33
2019-03-17T01:28:21.002Z,5.00
2019-03-17T01:30:49.891Z,4.53
2019-03-17T01:33:19.114Z,3.80
2019-03-17T01:35:50.684Z,4.50
2019-03-17T01:38:19.523Z,4.40
2019-03-17T01:41:11.960Z,4.80
2019-03-17T01:43:40.720Z,4.30
2019-03-17T01:46:12.711Z,4.30
2019-03-17T01:48:44.099Z,4.20
2019-03-17T01:51:12.849Z,4.80
2019-03-17T01:53:43.588Z,5.57
2019-03-17T01:56:12.613Z,4.97
2019-03-17T01:58:41.914Z,4.70
2019-03-17T02:01:11.846Z,5.97
2019-03-17T02:03:44.897Z,5.80
2019-03-17T02:06:13.574Z,6.03
2019-03-17T02:08:42.455Z,5.20
2019-03-17T02:11:11.664Z,6.03
2019-03-17T02:13:40.432Z,6.30
2019-03-17T02:16:13.879Z,5.93
2019-03-17T02:18:42.834Z,6.47
2019-03-17T02:21:11.901Z,6.37
2019-03-17T02:23:40.813Z,6.80
2019-03-17T02:26:10.228Z,6.70
2019-03-17T02:28:39.221Z,7.30
2019-03-17T02:31:19.683Z,7.00
2019-03-17T02:33:57.557Z,7.20
2019-03-17T02:36:28.286Z,6.57
2019-03-17T02:38:56.899Z,6.40
2019-03-17T02:41:25.484Z,5.33
2019-03-17T02:43:54.708Z,5.87
2019-03-17T02:46:23.436Z,5.83
2019-03-17T02:49:01.249Z,5.53
2019-03-17T02:51:30.095Z,5.20
2019-03-17T02:54:01.213Z,4.43
2019-03-17T02:56:29.897Z,4.07
2019-03-17T02:58:58.882Z,3.17
2019-03-17T03:01:27.696Z,3.03
2019-03-17T03:03:56.447Z,2.43
2019-03-17T03:06:34.413Z,3.17
2019-03-17T03:09:04.285Z,3.03
2019-03-17T03:11:33.320Z,2.50
2019-03-17T03:14:02.088Z,3.50
2019-03-17T03:16:31.115Z,3.33
2019-03-17T03:18:59.977Z,2.10
2019-03-17T03:21:28.841Z,1.13
2019-03-17T03:23:57.470Z,1.20
2019-03-17T03:26:26.452Z,1.50
2019-03-17T03:28:56.799Z,1.40
2019-03-17T03:31:25.563Z,1.60
2019-03-17T03:33:54.281Z,1.50
2019-03-17T03:36:23.214Z,2.00
2019-03-17T03:38:52.173Z,1.47
2019-03-17T03:41:20.766Z,1.90
2019-03-17T03:43:49.351Z,1.80
2019-03-17T03:46:18.130Z,1.60
2019-03-17T03:48:46.833Z,1.97
2019-03-17T03:51:15.446Z,1.93
2019-03-17T03:53:44.193Z,2.23
2019-03-17T03:56:13.135Z,2.13
2019-03-17T03:58:41.666Z,1.87
2019-03-17T04:01:10.377Z,1.60
2019-03-17T04:03:38.875Z,1.30
2019-03-17T04:06:07.454Z,1.53
2019-03-17T04:08:36.094Z,1.60
2019-03-17T04:11:04.854Z,2.17
2019-03-17T04:13:34.844Z,1.80
2019-03-17T04:16:03.530Z,1.80
2019-03-17T04:18:32.383Z,1.93
2019-03-17T04:21:01.185Z,1.50
2019-03-17T04:23:29.810Z,1.30
2019-03-17T04:26:05.505Z,1.60
2019-03-17T04:28:34.130Z,1.70
2019-03-17T04:31:02.776Z,3.27
2019-03-17T04:33:31.312Z,1.60
2019-03-17T04:35:59.853Z,1.73
2019-03-17T04:38:28.760Z,1.70
2019-03-17T04:40:57.640Z,1.90
2019-03-17T04:43:26.358Z,1.90
2019-03-17T04:45:55.023Z,2.13
2019-03-17T04:48:23.827Z,2.40
2019-03-17T04:50:52.756Z,1.90
2019-03-17T04:53:22.566Z,1.90
2019-03-17T04:55:51.286Z,2.00
2019-03-17T04:58:19.855Z,1.73
2019-03-17T05:00:48.578Z,1.70
2019-03-17T05:03:17.311Z,3.23
2019-03-17T05:05:45.929Z,2.10
2019-03-17T05:08:14.460Z,2.20
2019-03-17T05:10:43.072Z,2.00
2019-03-17T05:13:11.909Z,1.70
2019-03-17T05:15:40.542Z,1.77
2019-03-17T05:18:09.179Z,2.20
2019-03-17T05:20:37.862Z,2.50
2019-03-17T05:23:06.337Z,2.10
2019-03-17T05:25:34.877Z,2.23
2019-03-17T05:28:03.685Z,1.90
2019-03-17T05:30:32.340Z,1.93
2019-03-17T05:33:01.181Z,2.00
2019-03-17T05:35:29.915Z,2.30
2019-03-17T05:37:58.643Z,2.27
2019-03-17T05:40:27.708Z,2.23
2019-03-17T05:42:56.287Z,2.47
2019-03-17T05:45:24.908Z,2.30
2019-03-17T05:47:53.512Z,1.93
2019-03-17T05:50:22.172Z,2.17
2019-03-17T05:52:50.949Z,2.23
2019-03-17T05:55:20.456Z,1.90
2019-03-17T05:57:49.197Z,2.10
2019-03-17T06:00:18.812Z,1.50
2019-03-17T06:02:47.361Z,1.70
2019-03-17T06:05:15.941Z,1.60
2019-03-17T06:07:44.702Z,2.17
2019-03-17T06:10:13.187Z,1.90
2019-03-17T06:12:41.912Z,1.67
2019-03-17T06:15:10.823Z,2.40
2019-03-17T06:17:39.493Z,1.80
2019-03-17T06:20:09.011Z,2.73
2019-03-17T06:22:37.819Z,1.50
2019-03-17T06:25:06.452Z,1.97
2019-03-17T06:27:35.134Z,1.80
2019-03-17T06:30:03.881Z,1.60
2019-03-17T06:32:32.617Z,2.03
2019-03-17T06:35:01.288Z,2.20
2019-03-17T06:37:31.192Z,1.87
2019-03-17T06:40:00.455Z,1.90
2019-03-17T06:42:29.239Z,1.70
2019-03-17T06:44:58.063Z,1.60
2019-03-17T06:47:26.921Z,0.97
2019-03-17T06:49:55.475Z,0.97
2019-03-17T06:52:24.059Z,1.20
2019-03-17T06:54:52.693Z,1.20
2019-03-17T06:57:21.368Z,1.63
2019-03-17T06:59:49.956Z,2.20
2019-03-17T07:02:18.520Z,1.80
2019-03-17T07:04:47.101Z,1.77
2019-03-17T07:07:15.700Z,1.90
2019-03-17T07:09:44.293Z,2.10
2019-03-17T07:12:13.018Z,1.40
2019-03-17T07:14:41.804Z,1.27
2019-03-17T07:17:10.708Z,1.60
2019-03-17T07:19:52.249Z,1.20
2019-03-17T07:22:21.069Z,2.40
2019-03-17T07:24:49.671Z,2.27
2019-03-17T07:27:18.302Z,1.63
2019-03-17T07:29:49.381Z,1.40
2019-03-17T07:32:17.351Z,1.30
2019-03-17T07:34:45.886Z,1.30
2019-03-17T07:37:15.321Z,1.37
2019-03-17T07:39:44.034Z,1.13
2019-03-17T07:42:12.593Z,1.47
2019-03-17T07:44:41.228Z,1.60
2019-03-17T07:47:17.582Z,1.40
2019-03-17T07:49:46.336Z,1.50
2019-03-17T07:52:15.255Z,1.80
2019-03-17T07:54:43.758Z,3.50
2019-03-17T07:57:12.410Z,1.80
2019-03-17T07:59:41.558Z,1.80
2019-03-17T08:02:10.176Z,2.40
2019-03-17T08:04:43.008Z,1.87
2019-03-17T08:07:09.299Z,2.20
2019-03-17T08:09:37.908Z,1.77
2019-03-17T08:12:06.750Z,1.53
2019-03-17T08:14:35.265Z,2.17
2019-03-17T08:17:04.019Z,2.10
2019-03-17T08:19:32.536Z,1.80
2019-03-17T08:22:01.388Z,2.50
2019-03-17T08:24:29.969Z,1.90
2019-03-17T08:26:58.690Z,1.83
2019-03-17T08:29:27.553Z,1.93
2019-03-17T08:31:56.339Z,2.27
2019-03-17T08:34:28.125Z,1.97
2019-03-17T08:36:57.031Z,1.73
2019-03-17T08:39:29.042Z,1.90
2019-03-17T08:42:07.619Z,2.03
2019-03-17T08:44:36.407Z,1.67
2019-03-17T08:47:05.507Z,1.70
2019-03-17T08:49:34.840Z,1.90
2019-03-17T08:52:20.327Z,1.80
2019-03-17T08:54:48.973Z,1.60
2019-03-17T08:57:18.030Z,1.93
2019-03-17T08:59:47.110Z,1.70
2019-03-17T09:02:17.619Z,1.50
2019-03-17T09:04:46.618Z,1.50
2019-03-17T09:07:20.418Z,1.10
2019-03-17T09:10:05.429Z,1.40
2019-03-17T09:12:34.822Z,0.80
2019-03-17T09:15:03.644Z,1.30
2019-03-17T09:17:32.410Z,0.90
2019-03-17T09:20:02.054Z,0.93
2019-03-17T09:22:41.171Z,1.00
2019-03-17T09:25:10.235Z,1.20
2019-03-17T09:27:39.272Z,1.10
2019-03-17T09:30:09.178Z,1.60
2019-03-17T09:32:43.740Z,1.27
2019-03-17T09:35:13.012Z,1.40
2019-03-17T09:37:43.598Z,1.47
2019-03-17T09:40:27.719Z,1.13
2019-03-17T09:42:56.704Z,1.53
2019-03-17T09:45:32.980Z,1.37
2019-03-17T09:48:05.176Z,1.33
2019-03-17T09:50:34.041Z,1.20
2019-03-17T09:53:13.575Z,1.10
2019-03-17T09:55:45.053Z,1.33
2019-03-17T09:58:13.954Z,1.40
2019-03-17T10:00:51.383Z,1.40
2019-03-17T10:03:20.846Z,1.13
2019-03-17T10:06:07.388Z,1.03
2019-03-17T10:08:36.482Z,0.90
2019-03-17T10:11:11.118Z,1.57
2019-03-17T10:13:43.046Z,1.20
2019-03-17T10:16:19.770Z,1.40
2019-03-17T10:18:49.222Z,1.17
2019-03-17T10:21:18.375Z,1.40
2019-03-17T10:23:59.816Z,1.50
2019-03-17T10:26:32.175Z,1.33
2019-03-17T10:29:20.027Z,1.17
2019-03-17T10:31:53.817Z,1.00
2019-03-17T10:34:45.930Z,1.90
2019-03-17T10:37:29.243Z,0.93
2019-03-17T10:39:58.883Z,1.30
2019-03-17T10:42:34.010Z,2.00
2019-03-17T10:47:43.849Z,1.57
2019-03-17T10:50:15.821Z,1.33
2019-03-17T10:53:19.258Z,1.87
2019-03-17T10:55:20.406Z,1.30
2019-03-17T10:57:58.996Z,1.47
2019-03-17T11:00:44.655Z,1.60
2019-03-17T11:03:44.236Z,1.57
2019-03-17T11:06:48.779Z,1.60
2019-03-17T11:09:25.476Z,1.40
2019-03-17T11:12:15.353Z,1.40
2019-03-17T11:14:44.821Z,1.20
2019-03-17T11:17:26.300Z,1.40
2019-03-17T11:19:55.450Z,1.67
2019-03-17T11:22:31.613Z,1.57
2019-03-17T11:25:05.668Z,1.90
2019-03-17T11:27:34.900Z,1.50
2019-03-17T11:30:04.512Z,1.50
2019-03-17T11:32:33.737Z,1.53
2019-03-17T11:35:06.115Z,1.50
2019-03-17T11:37:35.395Z,1.30
2019-03-17T11:40:04.775Z,1.40
2019-03-17T11:42:34.512Z,1.20
2019-03-17T11:45:03.709Z,1.30
2019-03-17T11:47:37.338Z,1.20
2019-03-17T11:50:06.537Z,1.50
2019-03-17T11:52:35.751Z,1.13
2019-03-17T11:55:05.123Z,1.10
2019-03-17T11:57:55.346Z,1.50
2019-03-17T12:00:25.901Z,1.40
2019-03-17T12:03:01.583Z,1.23
2019-03-17T12:05:30.578Z,1.10
2019-03-17T12:08:02.848Z,1.60
2019-03-17T12:10:32.515Z,1.30
2019-03-17T12:13:05.948Z,1.30
2019-03-17T12:15:34.823Z,1.20
2019-03-17T12:18:03.955Z,1.27
2019-03-17T12:20:33.224Z,1.30
2019-03-17T12:23:20.292Z,1.10
2019-03-17T12:25:49.233Z,1.07
2019-03-17T12:28:18.066Z,1.40
2019-03-17T12:30:47.191Z,1.23
2019-03-17T12:33:15.902Z,1.40
2019-03-17T12:35:44.892Z,1.00
2019-03-17T12:38:13.994Z,1.57
2019-03-17T12:40:53.530Z,1.30
2019-03-17T12:43:22.475Z,1.00
2019-03-17T12:45:51.162Z,1.37
2019-03-17T12:48:20.201Z,1.43
2019-03-17T12:50:48.835Z,1.50
2019-03-17T12:53:17.559Z,1.10
2019-03-17T12:55:46.111Z,1.20
2019-03-17T12:58:15.101Z,1.00
2019-03-17T13:00:43.891Z,0.97
2019-03-17T13:03:12.773Z,1.27
2019-03-17T13:05:41.366Z,1.27
2019-03-17T13:08:10.302Z,1.53
2019-03-17T13:10:39.093Z,1.10
2019-03-17T13:13:07.750Z,1.10
2019-03-17T13:15:36.459Z,1.23
2019-03-17T13:18:05.044Z,1.20
2019-03-17T13:20:33.693Z,1.10
2019-03-17T13:23:02.374Z,1.30
2019-03-17T13:25:30.998Z,1.20
2019-03-17T13:27:59.687Z,1.10
2019-03-17T13:30:28.514Z,1.20
2019-03-17T13:32:57.208Z,1.03
2019-03-17T13:35:25.879Z,1.27
2019-03-17T13:37:54.416Z,1.37
2019-03-17T13:40:29.436Z,1.30
2019-03-17T13:42:53.492Z,1.43
2019-03-17T13:45:22.193Z,1.07
2019-03-17T13:47:53.048Z,0.80
2019-03-17T13:50:21.500Z,1.43
2019-03-17T13:52:53.493Z,1.13
2019-03-17T13:55:23.819Z,1.43
2019-03-17T13:57:53.459Z,1.40
2019-03-17T14:00:22.760Z,1.23
2019-03-17T14:02:51.805Z,1.43
2019-03-17T14:05:24.186Z,2.13
2019-03-17T14:07:53.519Z,1.43
2019-03-17T14:10:22.447Z,1.40
2019-03-17T14:12:51.541Z,1.10
2019-03-17T14:15:20.462Z,1.30
2019-03-17T14:17:49.571Z,1.00
2019-03-17T14:20:20.693Z,1.23
2019-03-17T14:22:48.723Z,1.50
2019-03-17T14:25:22.559Z,1.30
2019-03-17T14:27:51.379Z,1.27
2019-03-17T14:30:20.534Z,1.33
2019-03-17T14:32:49.640Z,1.20
2019-03-17T14:35:21.636Z,1.30
2019-03-17T14:37:50.824Z,1.10
2019-03-17T14:40:20.095Z,1.20
2019-03-17T14:42:48.804Z,1.50
2019-03-17T14:45:17.408Z,1.53
2019-03-17T14:47:46.282Z,1.30
2019-03-17T14:50:15.581Z,1.23
2019-03-17T14:52:44.248Z,1.37
2019-03-17T14:55:12.989Z,0.90
2019-03-17T14:57:41.838Z,1.57
2019-03-17T15:00:11.896Z,1.20
2019-03-17T15:02:40.584Z,1.40
2019-03-17T15:05:09.227Z,1.20
2019-03-17T15:07:37.904Z,1.43
2019-03-17T15:10:07.689Z,1.30
2019-03-17T15:12:36.411Z,1.20
2019-03-17T15:15:05.318Z,0.90
2019-03-17T15:17:36.135Z,1.13
2019-03-17T15:20:05.071Z,1.17
2019-03-17T15:22:33.674Z,1.20
2019-03-17T15:25:02.222Z,1.00
2019-03-17T15:27:32.197Z,1.10
2019-03-17T15:30:00.847Z,1.30
2019-03-17T15:32:29.619Z,1.20
2019-03-17T15:35:00.771Z,1.20
2019-03-17T15:37:30.112Z,1.70
2019-03-17T15:39:58.903Z,1.10
2019-03-17T15:42:27.718Z,1.13
2019-03-17T15:44:56.401Z,1.10
2019-03-17T15:47:25.069Z,1.40
2019-03-17T15:49:53.748Z,1.20
2019-03-17T15:52:22.701Z,1.30
2019-03-17T15:54:51.662Z,1.33
2019-03-17T15:57:20.455Z,1.20
2019-03-17T15:59:49.242Z,1.53
2019-03-17T16:02:18.061Z,1.63
2019-03-17T16:04:47.099Z,1.10
2019-03-17T16:07:15.682Z,1.20
2019-03-17T16:09:44.946Z,1.53
2019-03-17T16:12:14.543Z,1.30
2019-03-17T16:14:45.083Z,1.30
2019-03-17T16:17:13.645Z,1.17
2019-03-17T16:19:42.223Z,1.00
2019-03-17T16:22:11.322Z,1.00
2019-03-17T16:24:39.981Z,1.00
2019-03-17T16:27:08.807Z,1.50
2019-03-17T16:29:37.523Z,1.87
2019-03-17T16:32:06.308Z,1.30
2019-03-17T16:34:34.939Z,1.50
2019-03-17T16:37:03.890Z,1.47
2019-03-17T16:39:32.823Z,1.13
2019-03-17T16:42:01.658Z,1.10
2019-03-17T16:44:30.807Z,1.20
2019-03-17T16:46:59.794Z,1.27
2019-03-17T16:49:28.481Z,1.13
2019-03-17T16:51:57.465Z,1.20
2019-03-17T16:54:26.260Z,1.40
2019-03-17T16:56:56.511Z,1.00
2019-03-17T16:59:25.179Z,1.20
2019-03-17T17:01:53.860Z,1.30
2019-03-17T17:04:23.019Z,1.07
2019-03-17T17:06:52.475Z,1.10
2019-03-17T17:09:21.117Z,1.13
2019-03-17T17:11:56.693Z,1.40
2019-03-17T17:14:20.799Z,1.30
2019-03-17T17:16:49.863Z,1.67
2019-03-17T17:19:20.423Z,1.40
2019-03-17T17:21:50.279Z,1.37
2019-03-17T17:24:35.505Z,1.40
2019-03-17T17:26:55.687Z,2.40
2019-03-17T17:29:25.030Z,1.60
2019-03-17T17:31:55.922Z,1.17
2019-03-17T17:34:50.388Z,1.50
2019-03-17T17:37:19.302Z,1.40
2019-03-17T17:39:49.730Z,1.13
2019-03-17T17:42:29.783Z,1.47
2019-03-17T17:44:58.996Z,1.20
2019-03-17T17:47:33.532Z,1.20
2019-03-17T17:50:05.354Z,1.30
2019-03-17T17:55:51.261Z,1.63
2019-03-17T17:58:23.376Z,1.80
2019-03-17T18:00:52.320Z,1.30
2019-03-17T18:03:25.279Z,1.77
2019-03-17T18:05:54.114Z,1.47
2019-03-17T18:08:23.069Z,1.33
2019-03-17T18:10:54.077Z,1.27
2019-03-17T18:13:23.193Z,1.40
2019-03-17T18:15:52.296Z,1.10
2019-03-17T18:18:23.410Z,1.40
2019-03-17T18:20:57.193Z,1.63
2019-03-17T18:23:26.129Z,1.50
2019-03-17T18:25:54.672Z,1.90
2019-03-17T18:28:24.219Z,1.60
2019-03-17T18:30:56.830Z,1.60
2019-03-17T18:33:25.967Z,1.50
2019-03-17T18:36:03.391Z,1.33
2019-03-17T18:38:35.261Z,1.00
2019-03-17T18:41:09.101Z,1.00
2019-03-17T18:44:13.483Z,0.90
2019-03-17T19:05:19.693Z,1.70
2019-03-17T19:08:30.595Z,1.37
2019-03-17T19:11:24.252Z,1.50
2019-03-17T19:14:32.235Z,1.87
2019-03-17T19:38:10.465Z,1.40
2019-03-17T19:40:51.803Z,2.17
2019-03-17T19:43:31.242Z,1.83
2019-03-17T19:57:34.462Z,1.50
2019-03-17T20:03:31.601Z,1.60
2019-03-17T20:06:27.459Z,1.97
2019-03-17T20:09:02.089Z,2.50
2019-03-17T20:54:16.614Z,2.13
2019-03-17T20:56:45.593Z,1.40
2019-03-17T20:59:21.508Z,2.13
2019-03-17T21:01:51.446Z,1.87
2019-03-17T21:04:35.828Z,1.90
2019-03-17T21:07:26.604Z,1.77
2019-03-17T21:10:39.448Z,1.97
2019-03-17T21:13:13.152Z,1.73
2019-03-17T21:19:05.723Z,1.87
2019-03-17T21:21:59.961Z,2.57
2019-03-17T21:24:28.833Z,2.00
2019-03-17T21:27:08.450Z,1.87
2019-03-17T21:29:32.131Z,1.50
2019-03-17T21:32:17.512Z,1.90
2019-03-17T21:34:48.497Z,1.47
2019-03-17T21:37:21.372Z,1.63
2019-03-17T21:39:51.496Z,1.77
2019-03-17T21:42:22.041Z,2.30
2019-03-17T21:45:17.168Z,1.50
2019-03-17T21:48:02.808Z,1.43
2019-03-17T21:53:23.342Z,1.30
2019-03-17T21:55:54.336Z,2.30
2019-03-17T21:58:27.085Z,1.77
2019-03-17T22:01:05.678Z,1.90
2019-03-17T22:03:37.006Z,2.07
2019-03-17T22:06:11.107Z,2.00
2019-03-17T22:08:40.167Z,1.23
2019-03-17T22:11:08.949Z,1.53
2019-03-17T22:13:40.605Z,1.97
2019-03-17T22:16:09.525Z,1.60
2019-03-17T22:18:38.806Z,1.83
2019-03-17T22:21:14.702Z,1.73
2019-03-17T22:23:48.018Z,2.20
2019-03-17T22:26:16.732Z,2.20
2019-03-17T22:29:05.221Z,2.00
2019-03-17T22:31:50.414Z,1.83
2019-03-17T22:34:27.829Z,1.83
2019-03-17T22:37:03.920Z,1.90
2019-03-17T22:39:31.813Z,2.37
2019-03-17T22:48:38.691Z,1.60
2019-03-17T22:51:14.971Z,1.70
2019-03-17T22:54:25.056Z,2.17
2019-03-17T22:57:25.862Z,1.67
2019-03-17T23:00:17.454Z,2.67
2019-03-17T23:02:55.244Z,2.10
2019-03-17T23:05:26.826Z,1.93
2019-03-17T23:07:58.235Z,1.40
2019-03-17T23:10:32.798Z,1.80
2019-03-17T23:13:11.016Z,1.70
2019-03-17T23:15:45.143Z,1.67
2019-03-17T23:18:25.582Z,1.97
2019-03-17T23:20:57.666Z,1.80
2019-03-17T23:23:30.614Z,1.80
2019-03-17T23:26:10.832Z,1.80
2019-03-17T23:28:44.190Z,1.70
2019-03-17T23:36:21.053Z,1.97
2019-03-17T23:38:58.393Z,2.00
2019-03-17T23:41:38.452Z,2.00
2019-03-17T23:44:15.482Z,1.80
2019-03-17T23:46:43.505Z,1.70
2019-03-17T23:49:24.684Z,1.70
2019-03-17T23:51:54.555Z,2.90
2019-03-17T23:54:23.341Z,2.40
2019-03-17T23:56:52.579Z,2.03
2019-03-17T23:59:21.429Z,2.37
